»·PEaware :: UAL1928 KELP-KDEN

UAL1928 :: KELP-KDEN

FLIGHT INFORMATION

Flight Status: Arrived
Operator:
United Airlines
More flights by this operator :: More flights under this callsign
Pilot: Chris C. (10181)
Aircraft: BOEING 737-200
(B732)
More flights by this aircraft type
Origin: KELP El Paso Intl
United States
Destination: KDEN Denver Intl
United States
More flights between these airports :: More routes between these airports
Route: +ELP J86 RUTER J13 ALS J206 HBU POWDR9
File this flight plan on PilotEdge
Remarks:
Altitude:
(Current/Filed)
27,000ft
Speed:
(Current/Filed)
480kts
Departed: 27-Oct-19 03:53 PM
Arrived: 27-Oct-19 05:20 PM
Distance/Time
Traveled:
490nm/1:27
Distance/Time
To Go:
Arrived

Flight Plot

Page will automatically refresh every two minutes.

Flight plan parsing failed; only flown route is shown


Map Options




Map Legend


Flown Route
Filed Route
Departure Airport
Arrival Airport
Navaid (VOR, NDB)
Fix

Horizontal Profiles

Position Reports

Time Latitude Longitude Heading Altitude Ground
Speed
27-Oct-19 14:56 31.800268 -106.392486 271 3927ft 0kts
27-Oct-19 14:57 31.800268 -106.392486 271 3927ft 0kts
27-Oct-19 15:00 31.800268 -106.392486 271 3927ft 0kts
27-Oct-19 15:01 31.800268 -106.392486 271 3927ft 0kts
27-Oct-19 15:02 31.800268 -106.392486 271 3927ft 0kts
27-Oct-19 15:03 31.800268 -106.392486 271 3927ft 0kts
27-Oct-19 15:04 31.800268 -106.392486 271 3927ft 0kts
27-Oct-19 15:05 31.800268 -106.392486 271 3927ft 0kts
27-Oct-19 15:06 31.800268 -106.392486 271 3927ft 0kts
27-Oct-19 15:07 31.800268 -106.392486 271 3927ft 0kts
27-Oct-19 15:08 31.800268 -106.392486 271 3927ft 0kts
27-Oct-19 15:09 31.800268 -106.392486 271 3927ft 0kts
27-Oct-19 15:10 31.800268 -106.392486 271 3927ft 0kts
27-Oct-19 15:11 31.800268 -106.392486 271 3927ft 0kts
27-Oct-19 15:12 31.800268 -106.392486 271 3927ft 0kts
27-Oct-19 15:13 31.800268 -106.392486 271 3927ft 0kts
27-Oct-19 15:14 31.800268 -106.392486 271 3927ft 0kts
27-Oct-19 15:15 31.800268 -106.392486 271 3927ft 0kts
27-Oct-19 15:16 31.800268 -106.392486 271 3927ft 0kts
27-Oct-19 15:17 31.800268 -106.392486 271 3927ft 0kts
27-Oct-19 15:18 31.800268 -106.392486 271 3927ft 0kts
27-Oct-19 15:19 31.800268 -106.392486 271 3927ft 0kts
27-Oct-19 15:20 31.800268 -106.392486 271 3927ft 0kts
27-Oct-19 15:21 31.800268 -106.392486 271 3927ft 0kts
27-Oct-19 15:22 31.800268 -106.392486 271 3927ft 0kts
27-Oct-19 15:23 31.800268 -106.392486 271 3927ft 0kts
27-Oct-19 15:24 31.800268 -106.392486 271 3927ft 0kts
27-Oct-19 15:25 31.800268 -106.392486 271 3927ft 0kts
27-Oct-19 15:26 31.800268 -106.392486 271 3927ft 0kts
27-Oct-19 15:27 31.800268 -106.392486 271 3927ft 0kts
27-Oct-19 15:28 31.800268 -106.392486 271 3927ft 0kts
27-Oct-19 15:29 31.800268 -106.392486 271 3927ft 0kts
27-Oct-19 15:30 31.800268 -106.392486 271 3927ft 0kts
27-Oct-19 15:31 31.800268 -106.392486 271 3927ft 0kts
27-Oct-19 15:32 31.800268 -106.392486 271 3927ft 0kts
27-Oct-19 15:33 31.800268 -106.392486 271 3927ft 0kts
27-Oct-19 15:34 31.800268 -106.392486 271 3927ft 0kts
27-Oct-19 15:35 31.800268 -106.392486 271 3927ft 0kts
27-Oct-19 15:36 31.800268 -106.392486 271 3927ft 0kts
27-Oct-19 15:37 31.800268 -106.392486 271 3927ft 0kts
27-Oct-19 15:38 31.800268 -106.392486 271 3927ft 0kts
27-Oct-19 15:39 31.800268 -106.392486 271 3927ft 0kts
27-Oct-19 15:40 31.800092 -106.391710 334 3928ft 3kts
27-Oct-19 15:41 31.799905 -106.391669 0 3928ft 0kts
27-Oct-19 15:42 31.799905 -106.391669 0 3928ft 0kts
27-Oct-19 15:43 31.799905 -106.391669 0 3928ft 0kts
27-Oct-19 15:44 31.799905 -106.391669 0 3928ft 0kts
27-Oct-19 15:45 31.799905 -106.391669 0 3928ft 0kts
27-Oct-19 15:46 31.800152 -106.391569 47 3928ft 5kts
27-Oct-19 15:47 31.799909 -106.384767 89 3937ft 26kts
27-Oct-19 15:48 31.799849 -106.377633 97 3945ft 18kts
27-Oct-19 15:49 31.799522 -106.371761 95 3953ft 22kts
27-Oct-19 15:50 31.799171 -106.363695 92 3956ft 25kts
27-Oct-19 15:51 31.799616 -106.360158 12 3952ft 3kts
27-Oct-19 15:52 31.801294 -106.373379 272 3951ft 131kts
27-Oct-19 15:53 31.798139 -106.426663 223 5533ft 192kts
27-Oct-19 15:54 31.754524 -106.398985 131 8179ft 219kts
27-Oct-19 15:55 31.753569 -106.329374 34 10008ft 262kts
27-Oct-19 15:56 31.819444 -106.335993 324 11893ft 274kts
27-Oct-19 15:57 31.886080 -106.385278 321 13683ft 287kts
27-Oct-19 15:58 31.944288 -106.455648 308 14853ft 312kts
27-Oct-19 15:59 32.006897 -106.528738 312 16537ft 319kts
27-Oct-19 16:00 32.073368 -106.608111 310 16893ft 361kts
27-Oct-19 16:01 32.141124 -106.695361 306 18467ft 359kts
27-Oct-19 16:02 32.204828 -106.789184 303 19538ft 368kts
27-Oct-19 16:03 32.268130 -106.885800 303 21024ft 374kts
27-Oct-19 16:04 32.358020 -106.950839 342 22343ft 403kts
27-Oct-19 16:05 32.468995 -106.976549 344 23541ft 411kts
27-Oct-19 16:06 32.582692 -107.001947 344 24631ft 417kts
27-Oct-19 16:07 32.698356 -107.027417 344 25604ft 423kts
27-Oct-19 16:08 32.811795 -107.065833 333 26471ft 421kts
27-Oct-19 16:09 32.921530 -107.119658 330 26911ft 433kts
27-Oct-19 16:10 33.034638 -107.180726 330 26901ft 451kts
27-Oct-19 16:11 33.150454 -107.240628 330 26898ft 454kts
27-Oct-19 16:12 33.277085 -107.271106 359 26894ft 481kts
27-Oct-19 16:13 33.409987 -107.237145 7 26899ft 488kts
27-Oct-19 16:14 33.544116 -107.211798 2 26899ft 486kts
27-Oct-19 16:15 33.678117 -107.179229 7 26891ft 491kts
27-Oct-19 16:16 33.812087 -107.142846 7 26879ft 493kts
27-Oct-19 16:17 33.946964 -107.106213 7 26881ft 494kts
27-Oct-19 16:18 34.081928 -107.071940 6 26881ft 494kts
27-Oct-19 16:19 34.217197 -107.036753 7 26881ft 495kts
27-Oct-19 16:20 34.352180 -107.000091 7 26881ft 496kts
27-Oct-19 16:21 34.486999 -106.963655 7 26879ft 497kts
27-Oct-19 16:22 34.622024 -106.927409 7 26878ft 498kts
27-Oct-19 16:24 34.757348 -106.891462 7 26879ft 499kts
27-Oct-19 16:25 34.893193 -106.855692 7 26876ft 501kts
27-Oct-19 16:26 35.030524 -106.819358 7 26888ft 504kts
27-Oct-19 16:27 35.163925 -106.759498 21 26887ft 515kts
27-Oct-19 16:28 35.298538 -106.702402 11 26883ft 511kts
27-Oct-19 16:29 35.435371 -106.654303 11 26884ft 513kts
27-Oct-19 16:30 35.572394 -106.604562 13 26904ft 516kts
27-Oct-19 16:31 35.708262 -106.548415 14 26962ft 517kts
27-Oct-19 16:32 35.843303 -106.486009 16 26954ft 520kts
27-Oct-19 16:33 35.978358 -106.421014 16 26954ft 522kts
27-Oct-19 16:34 36.112999 -106.356161 16 26952ft 524kts
27-Oct-19 16:35 36.248298 -106.291100 17 26953ft 522kts
27-Oct-19 16:36 36.383509 -106.226009 17 26947ft 522kts
27-Oct-19 16:37 36.518886 -106.161116 16 26941ft 521kts
27-Oct-19 16:38 36.654861 -106.098900 14 26935ft 520kts
27-Oct-19 16:39 36.792535 -106.046533 12 26936ft 519kts
27-Oct-19 16:40 36.931843 -105.998001 10 26861ft 520kts
27-Oct-19 16:41 37.071844 -105.951130 9 26843ft 521kts
27-Oct-19 16:42 37.207755 -105.889791 18 26844ft 527kts
27-Oct-19 16:42 37.319925 -105.828180 8 26837ft 519kts
27-Oct-19 16:44 37.454459 -105.893870 303 26849ft 443kts
27-Oct-19 16:45 37.534987 -106.011344 302 26844ft 442kts
27-Oct-19 16:45 37.601969 -106.109629 302 26844ft 443kts
27-Oct-19 16:46 37.694777 -106.213681 322 26847ft 468kts
27-Oct-19 16:47 37.804668 -106.298963 313 26844ft 456kts
27-Oct-19 16:48 37.900479 -106.402878 309 26831ft 453kts
27-Oct-19 16:49 37.994254 -106.509541 309 26816ft 453kts
27-Oct-19 16:50 38.088438 -106.616734 309 26775ft 454kts
27-Oct-19 16:51 38.181038 -106.722108 309 26781ft 454kts
27-Oct-19 16:52 38.274948 -106.828915 309 26780ft 454kts
27-Oct-19 16:53 38.369496 -106.935983 309 26780ft 454kts
27-Oct-19 16:54 38.481066 -107.012414 352 26778ft 505kts
27-Oct-19 16:55 38.600932 -106.918276 60 26786ft 540kts
27-Oct-19 16:56 38.663792 -106.744607 69 26800ft 538kts
27-Oct-19 16:57 38.732314 -106.574168 56 26800ft 540kts
27-Oct-19 16:58 38.824041 -106.421513 49 26909ft 538kts
27-Oct-19 16:59 38.920096 -106.273745 50 26950ft 539kts
27-Oct-19 17:00 39.015891 -106.140127 52 26873ft 472kts
27-Oct-19 17:01 39.107466 -106.020267 56 24461ft 461kts
27-Oct-19 17:02 39.187308 -105.899291 59 22668ft 424kts
27-Oct-19 17:03 39.257685 -105.783407 59 20716ft 397kts
27-Oct-19 17:04 39.321688 -105.672496 59 18945ft 367kts
27-Oct-19 17:05 39.380146 -105.567013 59 17469ft 358kts
27-Oct-19 17:06 39.438332 -105.464980 72 15899ft 330kts
27-Oct-19 17:07 39.459147 -105.360959 77 15560ft 278kts
27-Oct-19 17:08 39.476354 -105.263335 78 13955ft 280kts
27-Oct-19 17:09 39.492340 -105.164625 78 12444ft 280kts
27-Oct-19 17:10 39.508092 -105.065793 78 11077ft 276kts
27-Oct-19 17:11 39.524463 -104.969431 78 9978ft 264kts
27-Oct-19 17:12 39.541670 -104.872666 77 9953ft 281kts
27-Oct-19 17:13 39.559477 -104.774580 74 9952ft 277kts
27-Oct-19 17:14 39.619617 -104.717870 26 8965ft 266kts
27-Oct-19 17:15 39.684375 -104.681137 24 7739ft 242kts
27-Oct-19 17:16 39.745489 -104.664024 357 6922ft 211kts
27-Oct-19 17:17 39.801717 -104.661055 359 5958ft 189kts
27-Oct-19 17:18 39.840384 -104.660403 0 5443ft 82kts
27-Oct-19 17:19 39.849380 -104.661832 331 5443ft 0kts
27-Oct-19 17:20 39.850426 -104.662383 351 5443ft 15kts

Navigation Log

Ident Type
Flight plan parsing failed, navigation log unavailable